Terminal Aerodrome Forecast
Issued by NWS

Home | Current Version | Previous Version | Text Only | Print | Product List | Glossary On
Versions: 1 2 3 4 5 6 7 8 9 10 11 12 13
000
FTUS42 KTBW 272300
TAFPIE
TAF
KPIE 272333Z 2800/2824 27007KT P6SM SCT250
     FM281200 27010KT P6SM VCSH SCT035 SCT100
     FM281700 26011G16KT P6SM SCT250=

USA.gov is the U.S. government's official web portal to all federal, state and local government web resources and services.